Veresegyház, Hungary

9:52 AM CET on February 09, 2016 (GMT +0100)
Weather of Veresegyh | | Change Station
CLOSE
Current Station
Personal Weather Station
Location: Veresegyhz, PEST
Elevation: 577 ft
Nearby Weather Stations

Elev 577 ft 47.65 °N, 19.29 °E | Updated 15 seconds ago

Clear
Clear
49.6 °F
Feels Like 49 °F
N
3.1
Wind Variable Wind from SE
Gusts 5.0 mph

Today
High -- | Low -- °F
--% Chance of Precip.
Yesterday
High -- | Low -- °F
Precip. -- in
Pressure 29.92 in
Visibility -9999.0 miles
Clouds
Windchill 49 °F
Dew Point 44 °F
Humidity 82%
Rainfall 0.00 in
Snow Depth Not available.
6:59 AM 4:55 PM
New Moon, 1% visible
METAR LHBP 090830Z 13004KT 100V200 CAVOK 09/06 Q1013 NOSIG
Pressure 29.92 in
Visibility -9999.0 miles
Clouds
Windchill 49 °F
Dew Point 44 °F
Humidity 82%
Rainfall 0.00 in
Snow Depth Not available.
6:59 AM 4:55 PM
New Moon, 1% visible
METAR LHBP 090830Z 13004KT 100V200 CAVOK 09/06 Q1013 NOSIG

10-Day Weather Forecast

Almanac

Astronomy

Feb. 09, 2016 Rise Set
Actual Time
Civil Twilight
Nautical Twilight
Astronomical Twilight
Moon
Length of Visible Light
Length of Day
Tomorrow will be .
, % of the Moon is Illuminated

Today's Extremes

Country Highs Country Lows

Community

WunderPhotos

Upload Photos

1,891,571 photos uploaded!

WunderBlog® & News

Nearby

Air Quality

  Air Quality AQ Index Pollutant
Not available.

Snow Depth

Station Depth Elevation

Earthquake Activity

City Distance Mag. Time & Date
Minimum magnitude displayed is 2.5.

Coastal Water Temperatures

Place Temperature

Stations

Nearby Weather Stations

Station Location Temp. Windchill Dew Point Humidity Wind Precip. Elev Updated Type